sensor_id;sensor_type;location;lat;lon;timestamp;temperature;humidity
2657;DHT22;1338;48.176;11.792;2022-12-07T00:00:07;1.70;99.90
2657;DHT22;1338;48.176;11.792;2022-12-07T00:02:36;1.60;99.90
2657;DHT22;1338;48.176;11.792;2022-12-07T00:05:05;1.60;99.90
2657;DHT22;1338;48.176;11.792;2022-12-07T00:07:36;1.60;99.90
2657;DHT22;1338;48.176;11.792;2022-12-07T00:10:06;1.60;1.00
2657;DHT22;1338;48.176;11.792;2022-12-07T00:12:35;1.60;1.00
2657;DHT22;1338;48.176;11.792;2022-12-07T00:15:04;1.50;1.00
2657;DHT22;1338;48.176;11.792;2022-12-07T00:17:33;1.60;1.00
2657;DHT22;1338;48.176;11.792;2022-12-07T00:20:02;1.50;1.00
2657;DHT22;1338;48.176;11.792;2022-12-07T00:22:31;1.60;1.00
2657;DHT22;1338;48.176;11.792;2022-12-07T00:25:04;1.60;1.00
2657;DHT22;1338;48.176;11.792;2022-12-07T00:27:33;1.60;1.00
2657;DHT22;1338;48.176;11.792;2022-12-07T00:30:02;1.60;1.00
2657;DHT22;1338;48.176;11.792;2022-12-07T00:32:31;1.60;99.90
2657;DHT22;1338;48.176;11.792;2022-12-07T00:35:00;1.60;99.90
2657;DHT22;1338;48.176;11.792;2022-12-07T00:37:28;1.60;99.90
2657;DHT22;1338;48.176;11.792;2022-12-07T00:39:57;1.60;99.90
2657;DHT22;1338;48.176;11.792;2022-12-07T00:42:28;1.60;99.90
2657;DHT22;1338;48.176;11.792;2022-12-07T00:44:57;1.60;99.90
2657;DHT22;1338;48.176;11.792;2022-12-07T00:47:26;1.60;99.90
2657;DHT22;1338;48.176;11.792;2022-12-07T00:49:54;1.60;99.90
2657;DHT22;1338;48.176;11.792;2022-12-07T00:52:23;1.50;99.90
2657;DHT22;1338;48.176;11.792;2022-12-07T00:54:52;1.50;99.90
2657;DHT22;1338;48.176;11.792;2022-12-07T00:57:22;1.60;99.90
2657;DHT22;1338;48.176;11.792;2022-12-07T00:59:53;1.60;99.90
2657;DHT22;1338;48.176;11.792;2022-12-07T01:02:24;1.50;99.90
2657;DHT22;1338;48.176;11.792;2022-12-07T01:04:53;1.50;1.00
2657;DHT22;1338;48.176;11.792;2022-12-07T01:07:21;1.50;99.90
2657;DHT22;1338;48.176;11.792;2022-12-07T01:09:50;1.50;99.90
2657;DHT22;1338;48.176;11.792;2022-12-07T01:12:18;1.50;99.90
2657;DHT22;1338;48.176;11.792;2022-12-07T01:14:49;1.50;1.00
2657;DHT22;1338;48.176;11.792;2022-12-07T01:17:20;1.40;1.00
2657;DHT22;1338;48.176;11.792;2022-12-07T01:19:49;1.40;1.00
2657;DHT22;1338;48.176;11.792;2022-12-07T01:22:21;1.40;1.00
2657;DHT22;1338;48.176;11.792;2022-12-07T01:24:50;1.40;1.00
2657;DHT22;1338;48.176;11.792;2022-12-07T01:27:19;1.40;1.00
2657;DHT22;1338;48.176;11.792;2022-12-07T01:29:48;1.40;1.00
2657;DHT22;1338;48.176;11.792;2022-12-07T01:32:17;1.40;1.00
2657;DHT22;1338;48.176;11.792;2022-12-07T01:34:49;1.40;1.00
2657;DHT22;1338;48.176;11.792;2022-12-07T01:37:18;1.30;1.00
2657;DHT22;1338;48.176;11.792;2022-12-07T01:39:48;1.30;1.00
2657;DHT22;1338;48.176;11.792;2022-12-07T01:42:18;1.30;1.00
2657;DHT22;1338;48.176;11.792;2022-12-07T01:48:00;1.20;1.00
2657;DHT22;1338;48.176;11.792;2022-12-07T01:50:30;1.30;1.00
2657;DHT22;1338;48.176;11.792;2022-12-07T01:53:02;1.30;1.00
2657;DHT22;1338;48.176;11.792;2022-12-07T01:55:34;1.20;1.00
2657;DHT22;1338;48.176;11.792;2022-12-07T01:58:05;1.20;1.00
2657;DHT22;1338;48.176;11.792;2022-12-07T02:00:34;1.20;1.00
2657;DHT22;1338;48.176;11.792;2022-12-07T02:03:06;1.20;1.00
2657;DHT22;1338;48.176;11.792;2022-12-07T02:05:40;1.20;1.00
2657;DHT22;1338;48.176;11.792;2022-12-07T02:08:10;1.20;1.00
2657;DHT22;1338;48.176;11.792;2022-12-07T02:10:42;1.20;1.00
2657;DHT22;1338;48.176;11.792;2022-12-07T02:13:15;1.20;1.00
2657;DHT22;1338;48.176;11.792;2022-12-07T02:16:00;1.20;1.00
2657;DHT22;1338;48.176;11.792;2022-12-07T02:18:44;1.20;1.00
2657;DHT22;1338;48.176;11.792;2022-12-07T02:21:22;1.20;1.00
2657;DHT22;1338;48.176;11.792;2022-12-07T02:30:01;1.20;1.00
2657;DHT22;1338;48.176;11.792;2022-12-07T02:32:40;1.20;1.00
2657;DHT22;1338;48.176;11.792;2022-12-07T02:35:15;1.20;1.00
2657;DHT22;1338;48.176;11.792;2022-12-07T02:37:53;1.20;1.00
2657;DHT22;1338;48.176;11.792;2022-12-07T02:40:29;1.20;1.00
2657;DHT22;1338;48.176;11.792;2022-12-07T02:43:05;1.10;1.00
2657;DHT22;1338;48.176;11.792;2022-12-07T02:45:40;1.10;1.00
2657;DHT22;1338;48.176;11.792;2022-12-07T02:48:13;1.10;1.00
2657;DHT22;1338;48.176;11.792;2022-12-07T02:50:44;1.10;1.00
2657;DHT22;1338;48.176;11.792;2022-12-07T02:53:32;1.10;1.00
2657;DHT22;1338;48.176;11.792;2022-12-07T02:56:05;1.10;1.00
2657;DHT22;1338;48.176;11.792;2022-12-07T02:58:46;1.10;1.00
2657;DHT22;1338;48.176;11.792;2022-12-07T03:01:32;1.10;1.00
2657;DHT22;1338;48.176;11.792;2022-12-07T03:04:14;1.10;1.00
2657;DHT22;1338;48.176;11.792;2022-12-07T03:06:55;1.10;1.00
2657;DHT22;1338;48.176;11.792;2022-12-07T03:09:29;1.10;1.00
2657;DHT22;1338;48.176;11.792;2022-12-07T03:12:12;1.10;1.00
2657;DHT22;1338;48.176;11.792;2022-12-07T03:14:45;1.10;1.00
2657;DHT22;1338;48.176;11.792;2022-12-07T03:17:20;1.10;1.00
2657;DHT22;1338;48.176;11.792;2022-12-07T03:19:54;1.10;1.00
2657;DHT22;1338;48.176;11.792;2022-12-07T03:22:30;1.10;1.00
2657;DHT22;1338;48.176;11.792;2022-12-07T03:25:04;1.00;1.00
2657;DHT22;1338;48.176;11.792;2022-12-07T03:27:35;1.00;1.00
2657;DHT22;1338;48.176;11.792;2022-12-07T03:30:08;1.00;1.00
2657;DHT22;1338;48.176;11.792;2022-12-07T03:32:43;1.00;1.00
2657;DHT22;1338;48.176;11.792;2022-12-07T03:35:17;1.00;1.00
2657;DHT22;1338;48.176;11.792;2022-12-07T03:37:51;1.00;1.00
2657;DHT22;1338;48.176;11.792;2022-12-07T03:40:25;1.00;1.00
2657;DHT22;1338;48.176;11.792;2022-12-07T03:42:54;1.00;1.00
2657;DHT22;1338;48.176;11.792;2022-12-07T03:45:30;1.00;1.00
2657;DHT22;1338;48.176;11.792;2022-12-07T03:48:07;1.00;1.00
2657;DHT22;1338;48.176;11.792;2022-12-07T03:50:42;1.00;1.00
2657;DHT22;1338;48.176;11.792;2022-12-07T03:53:15;1.00;1.00
2657;DHT22;1338;48.176;11.792;2022-12-07T03:55:48;1.00;1.00
2657;DHT22;1338;48.176;11.792;2022-12-07T03:58:19;1.00;1.00
2657;DHT22;1338;48.176;11.792;2022-12-07T04:00:49;1.00;1.00
2657;DHT22;1338;48.176;11.792;2022-12-07T04:03:20;1.00;1.00
2657;DHT22;1338;48.176;11.792;2022-12-07T04:05:49;1.00;1.00
2657;DHT22;1338;48.176;11.792;2022-12-07T04:08:18;1.00;1.00
2657;DHT22;1338;48.176;11.792;2022-12-07T04:10:47;1.00;1.00
2657;DHT22;1338;48.176;11.792;2022-12-07T04:13:16;1.00;1.00
2657;DHT22;1338;48.176;11.792;2022-12-07T04:15:46;1.00;1.00
2657;DHT22;1338;48.176;11.792;2022-12-07T04:18:16;1.00;1.00
2657;DHT22;1338;48.176;11.792;2022-12-07T04:20:46;1.00;1.00
2657;DHT22;1338;48.176;11.792;2022-12-07T04:23:15;1.00;1.00
2657;DHT22;1338;48.176;11.792;2022-12-07T04:25:44;1.10;1.00
2657;DHT22;1338;48.176;11.792;2022-12-07T04:28:12;1.00;1.00
2657;DHT22;1338;48.176;11.792;2022-12-07T04:30:42;1.00;1.00
2657;DHT22;1338;48.176;11.792;2022-12-07T04:33:11;1.00;1.00
2657;DHT22;1338;48.176;11.792;2022-12-07T04:35:42;1.00;1.00
2657;DHT22;1338;48.176;11.792;2022-12-07T04:38:12;1.10;1.00
2657;DHT22;1338;48.176;11.792;2022-12-07T04:40:41;1.10;1.00
2657;DHT22;1338;48.176;11.792;2022-12-07T04:43:10;1.10;1.00
2657;DHT22;1338;48.176;11.792;2022-12-07T04:45:38;1.10;1.00
2657;DHT22;1338;48.176;11.792;2022-12-07T04:48:07;1.20;1.00
2657;DHT22;1338;48.176;11.792;2022-12-07T04:50:36;1.10;1.00
2657;DHT22;1338;48.176;11.792;2022-12-07T04:53:13;1.10;1.00
2657;DHT22;1338;48.176;11.792;2022-12-07T04:55:43;1.20;1.00
2657;DHT22;1338;48.176;11.792;2022-12-07T04:58:13;1.20;1.00
2657;DHT22;1338;48.176;11.792;2022-12-07T05:00:42;1.10;1.00
2657;DHT22;1338;48.176;11.792;2022-12-07T05:03:11;1.20;1.00
2657;DHT22;1338;48.176;11.792;2022-12-07T05:05:40;1.20;1.00
2657;DHT22;1338;48.176;11.792;2022-12-07T05:08:10;1.20;1.00
2657;DHT22;1338;48.176;11.792;2022-12-07T05:10:41;1.20;1.00
2657;DHT22;1338;48.176;11.792;2022-12-07T05:13:10;1.20;1.00
2657;DHT22;1338;48.176;11.792;2022-12-07T05:15:39;1.20;1.00
2657;DHT22;1338;48.176;11.792;2022-12-07T05:18:07;1.20;1.00
2657;DHT22;1338;48.176;11.792;2022-12-07T05:20:36;1.20;1.00
2657;DHT22;1338;48.176;11.792;2022-12-07T05:23:09;1.20;51.80
2657;DHT22;1338;48.176;11.792;2022-12-07T05:25:38;1.10;9.70
2657;DHT22;1338;48.176;11.792;2022-12-07T05:28:09;1.10;56.60
2657;DHT22;1338;48.176;11.792;2022-12-07T05:30:38;1.10;78.50
2657;DHT22;1338;48.176;11.792;2022-12-07T05:33:07;1.10;99.90
2657;DHT22;1338;48.176;11.792;2022-12-07T05:35:36;1.00;99.90
2657;DHT22;1338;48.176;11.792;2022-12-07T05:38:06;1.00;99.90
2657;DHT22;1338;48.176;11.792;2022-12-07T05:40:35;1.00;99.90
2657;DHT22;1338;48.176;11.792;2022-12-07T05:43:05;1.00;99.90
2657;DHT22;1338;48.176;11.792;2022-12-07T05:45:35;1.00;99.90
2657;DHT22;1338;48.176;11.792;2022-12-07T05:48:07;1.00;99.90
2657;DHT22;1338;48.176;11.792;2022-12-07T05:50:37;1.00;99.90
2657;DHT22;1338;48.176;11.792;2022-12-07T05:53:05;1.50;1.00
2657;DHT22;1338;48.176;11.792;2022-12-07T05:55:34;1.50;1.00
2657;DHT22;1338;48.176;11.792;2022-12-07T05:58:03;1.10;99.90
2657;DHT22;1338;48.176;11.792;2022-12-07T06:00:53;1.00;99.90
2657;DHT22;1338;48.176;11.792;2022-12-07T06:03:22;1.00;99.90
2657;DHT22;1338;48.176;11.792;2022-12-07T06:05:55;1.00;99.90
2657;DHT22;1338;48.176;11.792;2022-12-07T06:08:24;1.00;95.60
2657;DHT22;1338;48.176;11.792;2022-12-07T06:10:53;1.00;70.30
2657;DHT22;1338;48.176;11.792;2022-12-07T06:13:36;1.00;54.40
2657;DHT22;1338;48.176;11.792;2022-12-07T06:16:14;1.00;16.20
2657;DHT22;1338;48.176;11.792;2022-12-07T06:18:43;1.00;1.00
2657;DHT22;1338;48.176;11.792;2022-12-07T06:21:13;1.10;1.00
2657;DHT22;1338;48.176;11.792;2022-12-07T06:23:42;1.10;1.00
2657;DHT22;1338;48.176;11.792;2022-12-07T06:26:12;1.10;1.00
2657;DHT22;1338;48.176;11.792;2022-12-07T06:28:41;1.00;1.00
2657;DHT22;1338;48.176;11.792;2022-12-07T06:31:14;1.10;1.00
2657;DHT22;1338;48.176;11.792;2022-12-07T06:33:44;1.00;1.00
2657;DHT22;1338;48.176;11.792;2022-12-07T06:36:14;1.00;1.00
2657;DHT22;1338;48.176;11.792;2022-12-07T06:38:46;1.30;1.00
2657;DHT22;1338;48.176;11.792;2022-12-07T06:41:14;1.10;1.00
2657;DHT22;1338;48.176;11.792;2022-12-07T06:43:42;1.10;1.00
2657;DHT22;1338;48.176;11.792;2022-12-07T06:46:10;1.10;1.00
2657;DHT22;1338;48.176;11.792;2022-12-07T06:48:40;1.10;1.00
2657;DHT22;1338;48.176;11.792;2022-12-07T06:51:08;1.10;1.00
2657;DHT22;1338;48.176;11.792;2022-12-07T06:53:36;1.10;1.00
2657;DHT22;1338;48.176;11.792;2022-12-07T06:56:05;1.10;1.00
2657;DHT22;1338;48.176;11.792;2022-12-07T06:58:33;1.10;1.00
2657;DHT22;1338;48.176;11.792;2022-12-07T07:01:01;1.20;1.00
2657;DHT22;1338;48.176;11.792;2022-12-07T07:03:29;1.20;1.00
2657;DHT22;1338;48.176;11.792;2022-12-07T07:05:59;1.20;1.00
2657;DHT22;1338;48.176;11.792;2022-12-07T07:08:27;1.20;1.00
2657;DHT22;1338;48.176;11.792;2022-12-07T07:10:55;1.10;1.00
2657;DHT22;1338;48.176;11.792;2022-12-07T07:13:23;1.10;1.00
2657;DHT22;1338;48.176;11.792;2022-12-07T07:15:51;1.10;1.00
2657;DHT22;1338;48.176;11.792;2022-12-07T07:18:19;1.20;1.00
2657;DHT22;1338;48.176;11.792;2022-12-07T07:20:47;1.20;1.00
2657;DHT22;1338;48.176;11.792;2022-12-07T07:23:17;1.20;1.00
2657;DHT22;1338;48.176;11.792;2022-12-07T07:25:45;1.30;1.00
2657;DHT22;1338;48.176;11.792;2022-12-07T07:28:13;1.20;1.00
2657;DHT22;1338;48.176;11.792;2022-12-07T07:30:42;1.20;1.00
2657;DHT22;1338;48.176;11.792;2022-12-07T07:33:10;1.30;1.00
2657;DHT22;1338;48.176;11.792;2022-12-07T07:35:38;1.20;1.00
2657;DHT22;1338;48.176;11.792;2022-12-07T07:38:07;1.30;1.00
2657;DHT22;1338;48.176;11.792;2022-12-07T07:40:36;1.30;1.00
2657;DHT22;1338;48.176;11.792;2022-12-07T07:43:04;1.30;1.00
2657;DHT22;1338;48.176;11.792;2022-12-07T07:45:32;1.30;1.00
2657;DHT22;1338;48.176;11.792;2022-12-07T07:48:00;1.40;1.00
2657;DHT22;1338;48.176;11.792;2022-12-07T07:50:28;1.30;1.00
2657;DHT22;1338;48.176;11.792;2022-12-07T07:52:57;1.40;1.00
2657;DHT22;1338;48.176;11.792;2022-12-07T07:55:25;1.40;1.00
2657;DHT22;1338;48.176;11.792;2022-12-07T07:57:55;1.40;99.90
2657;DHT22;1338;48.176;11.792;2022-12-07T08:00:23;1.40;99.90
2657;DHT22;1338;48.176;11.792;2022-12-07T08:02:51;1.50;99.90
2657;DHT22;1338;48.176;11.792;2022-12-07T08:05:19;1.50;99.90
2657;DHT22;1338;48.176;11.792;2022-12-07T08:07:47;1.60;99.90
2657;DHT22;1338;48.176;11.792;2022-12-07T08:10:16;1.60;99.90
2657;DHT22;1338;48.176;11.792;2022-12-07T08:12:44;1.60;99.90
2657;DHT22;1338;48.176;11.792;2022-12-07T08:15:31;1.70;99.90
2657;DHT22;1338;48.176;11.792;2022-12-07T08:17:59;1.70;99.90
2657;DHT22;1338;48.176;11.792;2022-12-07T08:20:30;1.80;99.90
2657;DHT22;1338;48.176;11.792;2022-12-07T08:22:59;1.80;55.90
2657;DHT22;1338;48.176;11.792;2022-12-07T08:25:27;1.80;1.00
2657;DHT22;1338;48.176;11.792;2022-12-07T08:27:55;1.90;99.90
2657;DHT22;1338;48.176;11.792;2022-12-07T08:30:23;1.90;99.90
2657;DHT22;1338;48.176;11.792;2022-12-07T08:32:53;1.90;99.90
2657;DHT22;1338;48.176;11.792;2022-12-07T08:35:21;1.90;99.90
2657;DHT22;1338;48.176;11.792;2022-12-07T08:37:50;1.90;99.90
2657;DHT22;1338;48.176;11.792;2022-12-07T08:40:18;1.90;99.90
2657;DHT22;1338;48.176;11.792;2022-12-07T08:42:51;1.80;99.90
2657;DHT22;1338;48.176;11.792;2022-12-07T08:45:20;1.80;1.00
2657;DHT22;1338;48.176;11.792;2022-12-07T08:47:57;1.80;1.00
2657;DHT22;1338;48.176;11.792;2022-12-07T08:50:26;1.80;99.90
2657;DHT22;1338;48.176;11.792;2022-12-07T08:52:57;1.80;1.00
2657;DHT22;1338;48.176;11.792;2022-12-07T08:55:26;1.80;99.90
2657;DHT22;1338;48.176;11.792;2022-12-07T08:57:55;1.90;99.90
2657;DHT22;1338;48.176;11.792;2022-12-07T09:00:25;1.90;99.90
2657;DHT22;1338;48.176;11.792;2022-12-07T09:02:55;2.00;99.90
2657;DHT22;1338;48.176;11.792;2022-12-07T09:05:23;1.90;99.90
2657;DHT22;1338;48.176;11.792;2022-12-07T09:07:55;2.00;99.90
2657;DHT22;1338;48.176;11.792;2022-12-07T09:10:24;2.00;99.90
2657;DHT22;1338;48.176;11.792;2022-12-07T09:12:53;2.10;99.90
2657;DHT22;1338;48.176;11.792;2022-12-07T09:15:21;2.10;99.90
2657;DHT22;1338;48.176;11.792;2022-12-07T09:17:49;2.10;99.90
2657;DHT22;1338;48.176;11.792;2022-12-07T09:20:19;2.10;53.70
2657;DHT22;1338;48.176;11.792;2022-12-07T09:22:53;2.20;57.10
2657;DHT22;1338;48.176;11.792;2022-12-07T09:25:21;2.20;95.80
2657;DHT22;1338;48.176;11.792;2022-12-07T09:27:55;2.30;99.90
2657;DHT22;1338;48.176;11.792;2022-12-07T09:30:23;2.40;43.80
2657;DHT22;1338;48.176;11.792;2022-12-07T09:32:52;2.50;1.80
2657;DHT22;1338;48.176;11.792;2022-12-07T09:35:23;2.30;1.00
2657;DHT22;1338;48.176;11.792;2022-12-07T09:37:51;2.40;1.00
2657;DHT22;1338;48.176;11.792;2022-12-07T09:40:21;2.40;1.00
2657;DHT22;1338;48.176;11.792;2022-12-07T09:42:52;2.40;1.00
2657;DHT22;1338;48.176;11.792;2022-12-07T09:45:24;2.40;1.00
2657;DHT22;1338;48.176;11.792;2022-12-07T09:47:52;2.50;1.00
2657;DHT22;1338;48.176;11.792;2022-12-07T09:50:24;2.50;1.00
2657;DHT22;1338;48.176;11.792;2022-12-07T09:52:55;2.50;1.00
2657;DHT22;1338;48.176;11.792;2022-12-07T09:55:33;2.60;1.00
2657;DHT22;1338;48.176;11.792;2022-12-07T09:58:01;2.60;1.00
2657;DHT22;1338;48.176;11.792;2022-12-07T10:00:30;2.70;1.00
2657;DHT22;1338;48.176;11.792;2022-12-07T10:02:59;2.60;1.00
2657;DHT22;1338;48.176;11.792;2022-12-07T10:05:32;2.70;1.00
2657;DHT22;1338;48.176;11.792;2022-12-07T10:08:02;2.60;1.00
2657;DHT22;1338;48.176;11.792;2022-12-07T10:10:31;2.60;1.00
2657;DHT22;1338;48.176;11.792;2022-12-07T10:13:06;2.60;1.00
2657;DHT22;1338;48.176;11.792;2022-12-07T10:15:46;2.70;1.00
2657;DHT22;1338;48.176;11.792;2022-12-07T10:18:21;2.70;1.00
2657;DHT22;1338;48.176;11.792;2022-12-07T10:21:12;2.80;1.00
2657;DHT22;1338;48.176;11.792;2022-12-07T10:23:41;2.80;1.00
2657;DHT22;1338;48.176;11.792;2022-12-07T10:26:21;2.90;1.00
2657;DHT22;1338;48.176;11.792;2022-12-07T10:28:54;2.90;1.00
2657;DHT22;1338;48.176;11.792;2022-12-07T10:31:23;2.90;1.00
2657;DHT22;1338;48.176;11.792;2022-12-07T10:33:53;2.90;1.00
2657;DHT22;1338;48.176;11.792;2022-12-07T10:36:26;3.00;1.00
2657;DHT22;1338;48.176;11.792;2022-12-07T10:39:00;3.10;1.00
2657;DHT22;1338;48.176;11.792;2022-12-07T10:41:30;3.00;1.00
2657;DHT22;1338;48.176;11.792;2022-12-07T10:43:58;3.20;1.00
2657;DHT22;1338;48.176;11.792;2022-12-07T10:47:00;3.20;1.00
2657;DHT22;1338;48.176;11.792;2022-12-07T10:50:13;3.30;1.00
2657;DHT22;1338;48.176;11.792;2022-12-07T10:53:05;3.50;1.00
2657;DHT22;1338;48.176;11.792;2022-12-07T10:55:52;3.50;1.00
2657;DHT22;1338;48.176;11.792;2022-12-07T10:58:35;3.70;1.00
2657;DHT22;1338;48.176;11.792;2022-12-07T11:01:13;3.60;1.00
2657;DHT22;1338;48.176;11.792;2022-12-07T11:04:10;3.80;1.00
2657;DHT22;1338;48.176;11.792;2022-12-07T11:06:46;3.80;1.00
2657;DHT22;1338;48.176;11.792;2022-12-07T11:09:35;3.80;1.00
2657;DHT22;1338;48.176;11.792;2022-12-07T11:12:36;4.00;1.00
2657;DHT22;1338;48.176;11.792;2022-12-07T11:15:14;4.40;1.00
2657;DHT22;1338;48.176;11.792;2022-12-07T11:17:50;4.70;1.00
2657;DHT22;1338;48.176;11.792;2022-12-07T11:20:33;4.70;1.00
2657;DHT22;1338;48.176;11.792;2022-12-07T11:23:18;4.60;1.00
2657;DHT22;1338;48.176;11.792;2022-12-07T11:25:54;4.50;1.00
2657;DHT22;1338;48.176;11.792;2022-12-07T11:28:38;5.00;1.00
2657;DHT22;1338;48.176;11.792;2022-12-07T11:31:14;4.50;1.00
2657;DHT22;1338;48.176;11.792;2022-12-07T11:33:49;4.90;1.00
2657;DHT22;1338;48.176;11.792;2022-12-07T11:36:31;4.40;1.00
2657;DHT22;1338;48.176;11.792;2022-12-07T11:39:04;4.40;1.00
2657;DHT22;1338;48.176;11.792;2022-12-07T11:41:36;4.00;1.00
2657;DHT22;1338;48.176;11.792;2022-12-07T11:44:07;3.80;1.00
2657;DHT22;1338;48.176;11.792;2022-12-07T11:46:49;3.80;1.00
2657;DHT22;1338;48.176;11.792;2022-12-07T11:49:23;3.80;1.00
2657;DHT22;1338;48.176;11.792;2022-12-07T11:51:53;3.60;1.00
2657;DHT22;1338;48.176;11.792;2022-12-07T11:54:28;3.60;1.00
2657;DHT22;1338;48.176;11.792;2022-12-07T11:57:02;3.50;1.00
2657;DHT22;1338;48.176;11.792;2022-12-07T11:59:36;3.60;1.00
2657;DHT22;1338;48.176;11.792;2022-12-07T12:02:13;3.90;1.00
2657;DHT22;1338;48.176;11.792;2022-12-07T12:04:49;3.80;1.00
2657;DHT22;1338;48.176;11.792;2022-12-07T12:07:23;3.80;1.00
2657;DHT22;1338;48.176;11.792;2022-12-07T12:10:19;3.90;1.00
2657;DHT22;1338;48.176;11.792;2022-12-07T12:13:16;4.30;1.00
2657;DHT22;1338;48.176;11.792;2022-12-07T12:16:29;4.40;1.00
2657;DHT22;1338;48.176;11.792;2022-12-07T12:19:22;4.20;1.00
2657;DHT22;1338;48.176;11.792;2022-12-07T12:21:56;4.60;1.00
2657;DHT22;1338;48.176;11.792;2022-12-07T12:24:27;4.10;1.00
2657;DHT22;1338;48.176;11.792;2022-12-07T12:27:01;4.00;1.00
2657;DHT22;1338;48.176;11.792;2022-12-07T12:29:35;4.00;1.00
2657;DHT22;1338;48.176;11.792;2022-12-07T12:32:13;3.80;1.00
2657;DHT22;1338;48.176;11.792;2022-12-07T12:34:58;3.90;1.00
2657;DHT22;1338;48.176;11.792;2022-12-07T12:37:43;3.90;1.00
2657;DHT22;1338;48.176;11.792;2022-12-07T12:40:40;4.00;1.00
2657;DHT22;1338;48.176;11.792;2022-12-07T12:43:41;4.10;1.00
2657;DHT22;1338;48.176;11.792;2022-12-07T12:46:48;3.90;1.00
2657;DHT22;1338;48.176;11.792;2022-12-07T12:49:36;4.10;1.00
2657;DHT22;1338;48.176;11.792;2022-12-07T13:01:45;3.90;1.00
2657;DHT22;1338;48.176;11.792;2022-12-07T13:07:13;3.80;1.00
2657;DHT22;1338;48.176;11.792;2022-12-07T13:10:02;3.60;1.00
2657;DHT22;1338;48.176;11.792;2022-12-07T13:12:31;3.60;1.00
2657;DHT22;1338;48.176;11.792;2022-12-07T13:14:59;3.60;1.00
2657;DHT22;1338;48.176;11.792;2022-12-07T13:18:04;3.60;1.00
2657;DHT22;1338;48.176;11.792;2022-12-07T13:20:51;3.70;1.00
2657;DHT22;1338;48.176;11.792;2022-12-07T13:23:26;3.70;1.00
2657;DHT22;1338;48.176;11.792;2022-12-07T13:26:09;3.80;1.00
2657;DHT22;1338;48.176;11.792;2022-12-07T13:28:45;3.80;1.00
2657;DHT22;1338;48.176;11.792;2022-12-07T13:31:20;3.80;1.00
2657;DHT22;1338;48.176;11.792;2022-12-07T13:33:51;3.80;1.00
2657;DHT22;1338;48.176;11.792;2022-12-07T13:36:22;3.70;1.00
2657;DHT22;1338;48.176;11.792;2022-12-07T13:38:54;3.70;1.00
2657;DHT22;1338;48.176;11.792;2022-12-07T13:41:23;3.90;1.00
2657;DHT22;1338;48.176;11.792;2022-12-07T13:43:58;4.10;1.00
2657;DHT22;1338;48.176;11.792;2022-12-07T13:46:40;4.20;1.00
2657;DHT22;1338;48.176;11.792;2022-12-07T13:49:20;4.00;1.00
2657;DHT22;1338;48.176;11.792;2022-12-07T13:51:51;4.60;1.00
2657;DHT22;1338;48.176;11.792;2022-12-07T13:54:21;4.70;1.00
2657;DHT22;1338;48.176;11.792;2022-12-07T13:56:50;4.70;1.00
2657;DHT22;1338;48.176;11.792;2022-12-07T13:59:21;4.80;1.00
2657;DHT22;1338;48.176;11.792;2022-12-07T14:01:51;4.80;1.00
2657;DHT22;1338;48.176;11.792;2022-12-07T14:04:31;4.60;1.00
2657;DHT22;1338;48.176;11.792;2022-12-07T14:07:15;4.40;1.00
2657;DHT22;1338;48.176;11.792;2022-12-07T14:09:55;4.20;1.00
2657;DHT22;1338;48.176;11.792;2022-12-07T14:12:24;3.90;1.00
2657;DHT22;1338;48.176;11.792;2022-12-07T14:14:54;3.70;1.00
2657;DHT22;1338;48.176;11.792;2022-12-07T14:17:24;3.60;1.00
2657;DHT22;1338;48.176;11.792;2022-12-07T14:19:54;3.60;1.00
2657;DHT22;1338;48.176;11.792;2022-12-07T14:22:30;3.60;1.00
2657;DHT22;1338;48.176;11.792;2022-12-07T14:25:01;3.40;1.00
2657;DHT22;1338;48.176;11.792;2022-12-07T14:27:32;3.30;1.00
2657;DHT22;1338;48.176;11.792;2022-12-07T14:30:03;3.20;1.00
2657;DHT22;1338;48.176;11.792;2022-12-07T14:32:34;3.20;1.00
2657;DHT22;1338;48.176;11.792;2022-12-07T14:35:09;3.20;1.00
2657;DHT22;1338;48.176;11.792;2022-12-07T14:37:41;3.10;1.00
2657;DHT22;1338;48.176;11.792;2022-12-07T14:40:13;3.10;1.00
2657;DHT22;1338;48.176;11.792;2022-12-07T14:42:42;3.10;1.00
2657;DHT22;1338;48.176;11.792;2022-12-07T14:45:14;3.10;1.00
2657;DHT22;1338;48.176;11.792;2022-12-07T14:47:44;3.10;1.00
2657;DHT22;1338;48.176;11.792;2022-12-07T14:50:36;3.10;1.00
2657;DHT22;1338;48.176;11.792;2022-12-07T14:53:10;3.30;1.00
2657;DHT22;1338;48.176;11.792;2022-12-07T14:55:55;3.50;1.00
2657;DHT22;1338;48.176;11.792;2022-12-07T14:58:23;3.50;1.00
2657;DHT22;1338;48.176;11.792;2022-12-07T15:00:51;3.50;1.00
2657;DHT22;1338;48.176;11.792;2022-12-07T15:03:19;3.00;1.00
2657;DHT22;1338;48.176;11.792;2022-12-07T15:05:47;2.70;1.00
2657;DHT22;1338;48.176;11.792;2022-12-07T15:08:17;2.50;1.00
2657;DHT22;1338;48.176;11.792;2022-12-07T15:10:45;2.20;1.00
2657;DHT22;1338;48.176;11.792;2022-12-07T15:13:13;1.90;1.00
2657;DHT22;1338;48.176;11.792;2022-12-07T15:15:59;1.90;1.00
2657;DHT22;1338;48.176;11.792;2022-12-07T15:18:28;2.10;1.00
2657;DHT22;1338;48.176;11.792;2022-12-07T15:20:56;2.10;1.00
2657;DHT22;1338;48.176;11.792;2022-12-07T15:23:25;2.00;1.00
2657;DHT22;1338;48.176;11.792;2022-12-07T15:25:53;1.90;1.00
2657;DHT22;1338;48.176;11.792;2022-12-07T15:28:22;1.80;1.00
2657;DHT22;1338;48.176;11.792;2022-12-07T15:30:50;1.70;1.00
2657;DHT22;1338;48.176;11.792;2022-12-07T15:33:18;1.70;1.00
2657;DHT22;1338;48.176;11.792;2022-12-07T15:35:46;1.50;1.00
2657;DHT22;1338;48.176;11.792;2022-12-07T15:38:14;1.40;1.00
2657;DHT22;1338;48.176;11.792;2022-12-07T15:40:46;1.20;54.40
2657;DHT22;1338;48.176;11.792;2022-12-07T15:43:14;1.20;99.90
2657;DHT22;1338;48.176;11.792;2022-12-07T15:45:56;1.20;74.00
2657;DHT22;1338;48.176;11.792;2022-12-07T15:48:26;1.30;43.50
2657;DHT22;1338;48.176;11.792;2022-12-07T15:51:02;1.20;38.90
2657;DHT22;1338;48.176;11.792;2022-12-07T15:53:30;1.10;99.90
2657;DHT22;1338;48.176;11.792;2022-12-07T15:56:00;1.10;99.90
2657;DHT22;1338;48.176;11.792;2022-12-07T15:58:28;1.00;99.90
2657;DHT22;1338;48.176;11.792;2022-12-07T16:00:56;0.80;99.90
2657;DHT22;1338;48.176;11.792;2022-12-07T16:03:24;0.60;99.90
2657;DHT22;1338;48.176;11.792;2022-12-07T16:05:52;0.60;99.90
2657;DHT22;1338;48.176;11.792;2022-12-07T16:08:20;0.80;99.90
2657;DHT22;1338;48.176;11.792;2022-12-07T16:10:48;0.90;99.90
2657;DHT22;1338;48.176;11.792;2022-12-07T16:13:18;0.90;99.90
2657;DHT22;1338;48.176;11.792;2022-12-07T16:15:47;0.80;99.90
2657;DHT22;1338;48.176;11.792;2022-12-07T16:18:15;0.80;99.90
2657;DHT22;1338;48.176;11.792;2022-12-07T16:20:47;0.90;99.90
2657;DHT22;1338;48.176;11.792;2022-12-07T16:23:16;0.90;99.90
2657;DHT22;1338;48.176;11.792;2022-12-07T16:25:44;1.00;99.90
2657;DHT22;1338;48.176;11.792;2022-12-07T16:28:12;0.90;99.90
2657;DHT22;1338;48.176;11.792;2022-12-07T16:30:41;0.90;99.90
2657;DHT22;1338;48.176;11.792;2022-12-07T16:33:09;1.00;99.90
2657;DHT22;1338;48.176;11.792;2022-12-07T16:35:38;1.10;99.90
2657;DHT22;1338;48.176;11.792;2022-12-07T16:38:07;1.20;99.90
2657;DHT22;1338;48.176;11.792;2022-12-07T16:40:35;1.10;99.90
2657;DHT22;1338;48.176;11.792;2022-12-07T16:43:03;1.10;99.90
2657;DHT22;1338;48.176;11.792;2022-12-07T16:45:32;1.00;99.90
2657;DHT22;1338;48.176;11.792;2022-12-07T16:48:02;1.00;99.90
2657;DHT22;1338;48.176;11.792;2022-12-07T16:50:30;0.90;99.90
2657;DHT22;1338;48.176;11.792;2022-12-07T16:52:58;1.10;99.90
2657;DHT22;1338;48.176;11.792;2022-12-07T16:55:26;1.00;99.90
2657;DHT22;1338;48.176;11.792;2022-12-07T16:57:54;1.00;99.90
2657;DHT22;1338;48.176;11.792;2022-12-07T17:00:23;1.10;99.90
2657;DHT22;1338;48.176;11.792;2022-12-07T17:02:51;1.10;99.90
2657;DHT22;1338;48.176;11.792;2022-12-07T17:05:23;1.10;99.90
2657;DHT22;1338;48.176;11.792;2022-12-07T17:07:51;1.10;99.90
2657;DHT22;1338;48.176;11.792;2022-12-07T17:10:20;1.10;99.90